Menu Close Menu
Station Historical Data
Daily Summary for December 6, 2017 Units:  Metric    English   Both
« Previous Day
Next Day »
Daily Weekly Monthly Yearly Custom
  High: Low: Average:
Temperature: 12.3 °C 2.7 °C 4.6 °C
Dew Point: 11.2 °C -2.8 °C 0.2 °C
Humidity: 93% 58% 74%
Wind Speed: 9.3km/h 0km/h 3.2km/h
Wind Gust: 9.3km/h - -
Wind- - SW
Pressure: 1024.3 hPa 1019.5 hPa -
Precipitation: 0.76 mm    
Historical Graphs
 
 
Tabular Data for December 6, 2017
Time Temperature Dew Point Pressure Wind Wind Speed Wind Gust Humidity Rainfall Rate (Hourly) solar Conditions
00:01 12.2 °C 11.1 °C 1019.5 hPa SW 3.7 km/h   93% 0.25 mm WeatherDisplay:10.37 W/m2 -DZ
00:06 12.2 °C 11.1 °C 1019.9 hPa SW 3.7 km/h   93% 0.25 mm WeatherDisplay:10.37 W/m2 -DZ
00:10 12.3 °C 11.2 °C 1019.9 hPa WSW 1.9 km/h 1.9 km/h 93% 0.25 mm WeatherDisplay:10.37 W/m2 -DZ
00:16 12 °C 10.9 °C 1019.9 hPa North 5.6 km/h 5.6 km/h 93% 0.25 mm WeatherDisplay:10.37 W/m2 -DZ
00:21 11.4 °C 9.9 °C 1019.9 hPa ENE 9.3 km/h 9.3 km/h 91% 0.25 mm WeatherDisplay:10.37 W/m2 -DZ
00:26 10.6 °C 9.1 °C 1020.2 hPa East 9.3 km/h 9.3 km/h 90% 0.51 mm WeatherDisplay:10.37 W/m2 -RA
00:31 10.2 °C 8.6 °C 1020.2 hPa South 9.3 km/h 9.3 km/h 90% 0.51 mm WeatherDisplay:10.37 W/m2 -RA
00:36 9.8 °C 8.3 °C 1020.2 hPa East 9.3 km/h   90% 0.51 mm WeatherDisplay:10.37 W/m2 -RA
00:41 9.6 °C 8.2 °C 1019.9 hPa South 9.3 km/h   91% 0.51 mm WeatherDisplay:10.37 W/m2 -RA
00:46 9.4 °C 8 °C 1019.9 hPa WSW 1.9 km/h 1.9 km/h 91% 0.51 mm WeatherDisplay:10.37 W/m2 -RA
00:51 9.1 °C 7.5 °C 1019.9 hPa ESE 7.4 km/h 7.4 km/h 90% 0.25 mm WeatherDisplay:10.37 W/m2 -RA
00:56 8.8 °C 7.2 °C 1019.9 hPa SW 7.4 km/h   90% 0.25 mm WeatherDisplay:10.37 W/m2 -RA
01:01 8.4 °C 6.7 °C 1019.9 hPa WNW 7.4 km/h 7.4 km/h 89% 0.25 mm WeatherDisplay:10.37 W/m2 OVC
01:06 8.2 °C 6.4 °C 1020.2 hPa WNW 5.6 km/h 5.6 km/h 89% 0.25 mm WeatherDisplay:10.37 W/m2 OVC
01:12 7.9 °C 6.1 °C 1020.2 hPa SSW 5.6 km/h   88% 0.25 mm WeatherDisplay:10.37 W/m2 OVC
01:17 7.8 °C 6.1 °C 1020.2 hPa SE 5.6 km/h   89% 0.25 mm WeatherDisplay:10.37 W/m2 OVC
01:22 7.7 °C 6 °C 1020.2 hPa East 3.7 km/h 3.7 km/h 89% 0.25 mm WeatherDisplay:10.37 W/m2 OVC
01:27 7.6 °C 5.8 °C 1019.9 hPa SE 3.7 km/h   89% 0 mm WeatherDisplay:10.37 W/m2 OVC
01:32 7.4 °C 5.6 °C 1019.9 hPa ESE 3.7 km/h   88% 0 mm WeatherDisplay:10.37 W/m2 OVC
01:37 7.4 °C 5.7 °C 1019.9 hPa East 1.9 km/h   89% 0 mm WeatherDisplay:10.37 W/m2 OVC
01:42 7.2 °C 5.3 °C 1020.2 hPa NNE 1.9 km/h 1.9 km/h 88% 0 mm WeatherDisplay:10.37 W/m2 OVC
01:47 6.9 °C 4.9 °C 1020.2 hPa WNW 3.7 km/h   87% 0 mm WeatherDisplay:10.37 W/m2 OVC
01:52 6.8 °C 4.9 °C 1020.5 hPa WNW 3.7 km/h   88% 0 mm WeatherDisplay:10.37 W/m2 OVC
01:57 6.6 °C 4.8 °C 1020.5 hPa WNW 1.9 km/h   88% 0 mm WeatherDisplay:10.37 W/m2 OVC
02:02 6.4 °C 4.6 °C 1020.5 hPa Calm     88% 0 mm WeatherDisplay:10.37 W/m2 BKN
02:07 6.4 °C 4.7 °C 1020.2 hPa WNW 1.9 km/h   89% 0 mm WeatherDisplay:10.37 W/m2 BKN
02:13 6.3 °C 4.7 °C 1020.5 hPa WNW 1.9 km/h 1.9 km/h 89% 0 mm WeatherDisplay:10.37 W/m2 BKN
02:18 6.2 °C 4.4 °C 1020.5 hPa NNW 1.9 km/h   88% 0 mm WeatherDisplay:10.37 W/m2 BKN
02:23 6.2 °C 4.2 °C 1020.5 hPa NW 3.7 km/h 3.7 km/h 87% 0 mm WeatherDisplay:10.37 W/m2 BKN
02:28 6.2 °C 4 °C 1020.5 hPa North 3.7 km/h 3.7 km/h 86% 0 mm WeatherDisplay:10.37 W/m2 BKN
02:33 6.1 °C 3.9 °C 1020.5 hPa SW 3.7 km/h 3.7 km/h 86% 0 mm WeatherDisplay:10.37 W/m2 BKN
02:35 6.1 °C 3.9 °C 1020.5 hPa WSW 3.7 km/h   86% 0 mm WeatherDisplay:10.37 W/m2 BKN
02:40 6.1 °C 3.9 °C 1020.5 hPa SW 5.6 km/h   86% 0 mm WeatherDisplay:10.37 W/m2 BKN
02:45 6 °C 4 °C 1020.9 hPa WNW 5.6 km/h   87% 0 mm WeatherDisplay:10.37 W/m2 BKN
02:50 5.9 °C 3.9 °C 1020.9 hPa NW 3.7 km/h   87% 0 mm WeatherDisplay:10.37 W/m2 BKN
02:55 5.9 °C 3.8 °C 1020.9 hPa West 5.6 km/h   86% 0 mm WeatherDisplay:10.37 W/m2 BKN
03:00 5.9 °C 3.7 °C 1020.9 hPa West 5.6 km/h 5.6 km/h 86% 0 mm WeatherDisplay:10.37 W/m2 BKN
03:16 5.7 °C 3.2 °C 1020.9 hPa WSW 1.9 km/h 1.9 km/h 84% 0 mm WeatherDisplay:10.37 W/m2 BKN
03:21 5.6 °C 3.3 °C 1020.9 hPa West 3.7 km/h   85% 0 mm WeatherDisplay:10.37 W/m2 BKN
03:26 5.6 °C 2.7 °C 1020.5 hPa WNW 9.3 km/h 9.3 km/h 82% 0 mm WeatherDisplay:10.37 W/m2 BKN
03:31 5.4 °C 2.6 °C 1020.9 hPa SE 9.3 km/h 9.3 km/h 82% 0 mm WeatherDisplay:10.37 W/m2 BKN
03:36 5.3 °C 2.5 °C 1020.9 hPa South 9.3 km/h 9.3 km/h 82% 0 mm WeatherDisplay:10.37 W/m2 BKN
03:41 5.2 °C 2.6 °C 1020.9 hPa ESE 3.7 km/h   83% 0 mm WeatherDisplay:10.37 W/m2 BKN
03:46 5.1 °C 2.4 °C 1020.9 hPa South 3.7 km/h   83% 0 mm WeatherDisplay:10.37 W/m2 BKN
03:51 5.1 °C 2.1 °C 1020.9 hPa ESE 7.4 km/h 7.4 km/h 81% 0 mm WeatherDisplay:10.37 W/m2 BKN
03:56 4.9 °C 2.1 °C 1021.2 hPa SE 7.4 km/h   82% 0 mm WeatherDisplay:10.37 W/m2 BKN
04:01 4.8 °C 2 °C 1020.9 hPa SW 5.6 km/h   82% 0 mm WeatherDisplay:10.37 W/m2 SCT
04:06 4.8 °C 1.6 °C 1020.9 hPa East 5.6 km/h 5.6 km/h 80% 0 mm WeatherDisplay:10.37 W/m2 SCT
04:12 4.7 °C 1.9 °C 1020.9 hPa NE 5.6 km/h   82% 0 mm WeatherDisplay:10.37 W/m2 SCT
04:17 4.6 °C 1.7 °C 1020.9 hPa NNW 3.7 km/h   82% 0 mm WeatherDisplay:10.37 W/m2 SCT
04:22 4.5 °C 1.7 °C 1020.9 hPa SE 3.7 km/h   82% 0 mm WeatherDisplay:10.37 W/m2 SCT
04:27 4.4 °C 1.6 °C 1020.5 hPa South 3.7 km/h   82% 0 mm WeatherDisplay:10.37 W/m2 SCT
04:32 4.3 °C 1.6 °C 1020.5 hPa WSW 1.9 km/h   82% 0 mm WeatherDisplay:10.37 W/m2 SCT
04:37 4.3 °C 1.8 °C 1020.5 hPa West 1.9 km/h   84% 0 mm WeatherDisplay:10.37 W/m2 SCT
04:42 4.2 °C 1.6 °C 1020.9 hPa SSW 3.7 km/h   83% 0 mm WeatherDisplay:10.37 W/m2 SCT
04:47 4.2 °C 1.2 °C 1020.9 hPa SE 3.7 km/h 3.7 km/h 81% 0 mm WeatherDisplay:10.37 W/m2 SCT
04:52 4.1 °C 1.3 °C 1020.9 hPa SSE 5.6 km/h 5.6 km/h 82% 0 mm WeatherDisplay:10.37 W/m2 SCT
04:57 4 °C 1.2 °C 1020.9 hPa SW 5.6 km/h   82% 0 mm WeatherDisplay:10.37 W/m2 SCT
05:02 3.9 °C 1.2 °C 1020.9 hPa WSW 5.6 km/h 5.6 km/h 82% 0 mm WeatherDisplay:10.37 W/m2 BKN
05:07 3.8 °C 1.1 °C 1020.5 hPa West 1.9 km/h   82% 0 mm WeatherDisplay:10.37 W/m2 BKN
05:12 3.8 °C 1.1 °C 1020.5 hPa NNW 1.9 km/h   82% 0 mm WeatherDisplay:10.37 W/m2 BKN
05:17 3.8 °C 1 °C 1020.9 hPa North 1.9 km/h   82% 0 mm WeatherDisplay:10.37 W/m2 BKN
05:23 3.7 °C 0.9 °C 1020.5 hPa NNW 1.9 km/h 1.9 km/h 82% 0 mm WeatherDisplay:10.37 W/m2 BKN
05:28 3.7 °C 0.9 °C 1020.5 hPa NW 1.9 km/h   82% 0 mm WeatherDisplay:10.37 W/m2 BKN
05:33 3.6 °C 0.8 °C 1020.5 hPa WNW 1.9 km/h   82% 0 mm WeatherDisplay:10.37 W/m2 BKN
05:38 3.6 °C 0.6 °C 1020.5 hPa WNW 1.9 km/h   81% 0 mm WeatherDisplay:10.37 W/m2 BKN
05:43 3.6 °C 0.6 °C 1020.9 hPa WNW 1.9 km/h   81% 0 mm WeatherDisplay:10.37 W/m2 BKN
05:48 3.5 °C 0.6 °C 1020.9 hPa WNW 1.9 km/h 1.9 km/h 81% 0 mm WeatherDisplay:10.37 W/m2 BKN
05:53 3.5 °C 0.4 °C 1020.9 hPa WNW 5.6 km/h   80% 0 mm WeatherDisplay:10.37 W/m2 BKN
05:58 3.4 °C 0.3 °C 1021.2 hPa SSW 5.6 km/h 5.6 km/h 80% 0 mm WeatherDisplay:10.37 W/m2 BKN
06:03 3.4 °C 0.3 °C 1021.2 hPa NW 1.9 km/h   80% 0 mm WeatherDisplay:10.37 W/m2 OVC
06:08 3.4 °C 0.3 °C 1021.2 hPa NW 1.9 km/h   80% 0 mm WeatherDisplay:10.37 W/m2 OVC
06:13 3.4 °C 0.1 °C 1020.9 hPa NNW 1.9 km/h   79% 0 mm WeatherDisplay:10.37 W/m2 OVC
06:23 3.3 °C 0.2 °C 1020.9 hPa NW 1.9 km/h 1.9 km/h 80% 0 mm WeatherDisplay:10.37 W/m2 OVC
06:28 3.3 °C 0 °C 1020.9 hPa NW 1.9 km/h 1.9 km/h 79% 0 mm WeatherDisplay:10.37 W/m2 OVC
06:34 3.3 °C -0.2 °C 1021.2 hPa NNW 7.4 km/h 7.4 km/h 78% 0 mm WeatherDisplay:10.37 W/m2 OVC
06:39 3.2 °C -0.4 °C 1021.2 hPa NNE 7.4 km/h 7.4 km/h 77% 0 mm WeatherDisplay:10.37 W/m2 OVC
06:49 3.2 °C -0.5 °C 1021.2 hPa NNW 3.7 km/h 3.7 km/h 77% 0 mm WeatherDisplay:10.37 W/m2 OVC
06:54 3.2 °C -0.5 °C 1021.2 hPa NNW 5.6 km/h   77% 0 mm WeatherDisplay:10.37 W/m2 OVC
06:59 3.2 °C -0.2 °C 1021.6 hPa NNW 7.4 km/h 7.4 km/h 78% 0 mm WeatherDisplay:10.37 W/m2 OVC
07:04 3.2 °C -0.2 °C 1021.6 hPa WSW 7.4 km/h 7.4 km/h 78% 0 mm WeatherDisplay:10.37 W/m2 BKN
07:09 3.2 °C -0.2 °C 1021.6 hPa West 5.6 km/h   78% 0 mm WeatherDisplay:10.37 W/m2 BKN
07:14 3.2 °C -0.1 °C 1021.6 hPa West 5.6 km/h 5.6 km/h 79% 0 mm WeatherDisplay:10.37 W/m2 BKN
07:19 3.2 °C -0.1 °C 1021.2 hPa West 3.7 km/h   79% 0 mm WeatherDisplay:10.37 W/m2 BKN
07:21 3.2 °C -0.1 °C 1021.2 hPa West 3.7 km/h   79% 0 mm WeatherDisplay:10.37 W/m2 BKN
07:26 3.2 °C -0.2 °C 1021.2 hPa NW 3.7 km/h 3.7 km/h 78% 0 mm WeatherDisplay:10.37 W/m2 BKN
07:31 3.2 °C -0.2 °C 1021.2 hPa NW 3.7 km/h   78% 0 mm WeatherDisplay:10.37 W/m2 BKN
07:36 3.2 °C -0.4 °C 1021.2 hPa ENE 3.7 km/h 3.7 km/h 77% 0 mm WeatherDisplay:10.37 W/m2 BKN
07:42 3.2 °C -0.4 °C 1021.2 hPa NNE 5.6 km/h 5.6 km/h 77% 0 mm WeatherDisplay:10.37 W/m2 BKN
07:47 3.2 °C -0.2 °C 1021.2 hPa NW 5.6 km/h 5.6 km/h 78% 0 mm WeatherDisplay:10.37 W/m2 BKN
07:52 3.2 °C -0.1 °C 1021.2 hPa NW 3.7 km/h   79% 0 mm WeatherDisplay:10.37 W/m2 BKN
07:57 3.2 °C -0.2 °C 1021.2 hPa WNW 3.7 km/h   78% 0 mm WeatherDisplay:10.37 W/m2 BKN
08:02 3.2 °C -0.4 °C 1020.9 hPa WSW 3.7 km/h 3.7 km/h 77% 0 mm WeatherDisplay:10.37 W/m2 OVC
08:07 3.3 °C -0.2 °C 1021.6 hPa West 3.7 km/h   78% 0 mm WeatherDisplay:10.37 W/m2 OVC
08:12 3.3 °C -0.2 °C 1021.6 hPa NW 3.7 km/h   78% 0 mm WeatherDisplay:10.37 W/m2 OVC
08:17 3.3 °C -0.6 °C 1021.2 hPa WNW 7.4 km/h   76% 0 mm WeatherDisplay:10.37 W/m2 OVC
08:22 3.3 °C -0.3 °C 1021.2 hPa NW 7.4 km/h   77% 0 mm WeatherDisplay:10.37 W/m2 OVC
08:27 3.4 °C -0.4 °C 1021.6 hPa NW 3.7 km/h 3.7 km/h 76% 0 mm WeatherDisplay:10.37 W/m2 OVC
08:33 3.4 °C -0.4 °C 1021.9 hPa WNW 7.4 km/h   76% 0 mm WeatherDisplay:10.37 W/m2 OVC
08:38 3.4 °C -0.2 °C 1021.9 hPa West 7.4 km/h 7.4 km/h 77% 0 mm WeatherDisplay:10.37 W/m2 OVC
08:43 3.4 °C -0.6 °C 1021.9 hPa NNE 3.7 km/h 3.7 km/h 75% 0 mm WeatherDisplay:10.37 W/m2 OVC
08:48 3.5 °C -0.5 °C 1021.9 hPa North 3.7 km/h   75% 0 mm WeatherDisplay:10.37 W/m2 OVC
08:53 3.6 °C -0.4 °C 1021.9 hPa NNW 3.7 km/h   75% 0 mm WeatherDisplay:10.37 W/m2 OVC
08:58 3.6 °C -0.4 °C 1021.9 hPa NW 1.9 km/h   75% 0 mm WeatherDisplay:10.37 W/m2 OVC
09:03 3.7 °C -0.5 °C 1022.2 hPa WNW 1.9 km/h   74% 0 mm WeatherDisplay:10.37 W/m2 OVC
09:08 3.7 °C -0.5 °C 1022.9 hPa NW 3.7 km/h 3.7 km/h 74% 0 mm WeatherDisplay:10.37 W/m2 OVC
09:13 3.8 °C -0.4 °C 1022.9 hPa WNW 3.7 km/h 3.7 km/h 74% 0 mm WeatherDisplay:10.37 W/m2 OVC
09:18 3.8 °C -0.4 °C 1022.6 hPa WNW 1.9 km/h 1.9 km/h 74% 0 mm WeatherDisplay:10.37 W/m2 OVC
09:23 3.8 °C -1.3 °C 1022.9 hPa North 7.4 km/h 7.4 km/h 69% 0 mm WeatherDisplay:10.37 W/m2 OVC
09:28 3.9 °C -1.3 °C 1023.2 hPa ENE 7.4 km/h 7.4 km/h 69% 0 mm WeatherDisplay:10.37 W/m2 OVC
09:34 3.9 °C -1.3 °C 1023.2 hPa NNE 7.4 km/h 7.4 km/h 69% 0 mm WeatherDisplay:10.37 W/m2 OVC
09:39 3.9 °C -1.9 °C 1023.2 hPa NW 5.6 km/h 5.6 km/h 66% 0 mm WeatherDisplay:10.37 W/m2 OVC
09:44 3.8 °C -1.6 °C 1023.2 hPa West 5.6 km/h 5.6 km/h 68% 0 mm WeatherDisplay:10.37 W/m2 OVC
09:49 3.8 °C -1.9 °C 1023.2 hPa WNW 5.6 km/h   66% 0 mm WeatherDisplay:10.37 W/m2 OVC
09:54 3.8 °C -1.7 °C 1023.6 hPa North 5.6 km/h   67% 0 mm WeatherDisplay:10.37 W/m2 OVC
09:59 3.8 °C -1.7 °C 1023.6 hPa West 5.6 km/h   67% 0 mm WeatherDisplay:10.37 W/m2 OVC
10:04 3.8 °C -1.7 °C 1023.6 hPa West 5.6 km/h 5.6 km/h 67% 0 mm WeatherDisplay:10.37 W/m2 OVC
10:09 3.8 °C -1.7 °C 1023.6 hPa West 3.7 km/h 3.7 km/h 67% 0 mm WeatherDisplay:10.37 W/m2 OVC
10:14 3.8 °C -2.2 °C 1023.6 hPa SSW 3.7 km/h 3.7 km/h 65% 0 mm WeatherDisplay:10.37 W/m2 OVC
10:19 3.8 °C -2.2 °C 1023.6 hPa SSE 7.4 km/h 7.4 km/h 65% 0 mm WeatherDisplay:10.37 W/m2 OVC
10:24 3.8 °C -2.2 °C 1023.6 hPa South 7.4 km/h 7.4 km/h 65% 0 mm WeatherDisplay:10.37 W/m2 OVC
10:29 3.8 °C -2 °C 1023.6 hPa West 5.6 km/h   66% 0 mm WeatherDisplay:10.37 W/m2 OVC
10:34 3.8 °C -2.3 °C 1023.6 hPa NW 3.7 km/h 3.7 km/h 64% 0 mm WeatherDisplay:10.37 W/m2 OVC
10:40 3.9 °C -2.1 °C 1023.6 hPa East 1.9 km/h   65% 0 mm WeatherDisplay:10.37 W/m2 OVC
10:45 3.9 °C -1.8 °C 1023.6 hPa NNW 1.9 km/h   66% 0 mm WeatherDisplay:10.37 W/m2 OVC
10:50 4.1 °C -1.7 °C 1023.6 hPa WNW 1.9 km/h   66% 0 mm WeatherDisplay:10.37 W/m2 OVC
10:55 4.1 °C -2.1 °C 1023.6 hPa West 7.4 km/h 7.4 km/h 64% 0 mm WeatherDisplay:10.37 W/m2 OVC
11:00 4.2 °C -2.3 °C 1023.6 hPa SE 7.4 km/h   63% 0 mm WeatherDisplay:10.37 W/m2 OVC
11:05 4.2 °C -1.6 °C 1023.2 hPa SSW 3.7 km/h 3.7 km/h 66% 0 mm WeatherDisplay:10.37 W/m2 OVC
11:10 4.2 °C -2.4 °C 1023.2 hPa NE 5.6 km/h   62% 0 mm WeatherDisplay:10.37 W/m2 OVC
11:15 4.2 °C -2 °C 1023.2 hPa East 5.6 km/h   64% 0 mm WeatherDisplay:10.37 W/m2 OVC
11:20 4.2 °C -2 °C 1023.2 hPa East 5.6 km/h   64% 0 mm WeatherDisplay:10.37 W/m2 OVC
11:25 4.3 °C -1.9 °C 1023.2 hPa East 5.6 km/h 5.6 km/h 64% 0 mm WeatherDisplay:10.37 W/m2 OVC
11:30 4.3 °C -2.4 °C 1023.2 hPa SE 5.6 km/h 5.6 km/h 62% 0 mm WeatherDisplay:10.37 W/m2 OVC
11:35 4.3 °C -2.2 °C 1023.2 hPa SSW 5.6 km/h 5.6 km/h 63% 0 mm WeatherDisplay:10.37 W/m2 OVC
11:40 4.3 °C -1.9 °C 1022.9 hPa SSW 5.6 km/h 5.6 km/h 64% 0 mm WeatherDisplay:10.37 W/m2 OVC
11:46 4.3 °C -2.4 °C 1023.2 hPa SE 5.6 km/h   62% 0 mm WeatherDisplay:10.37 W/m2 OVC
11:51 4.3 °C -1.9 °C 1022.9 hPa South 5.6 km/h   64% 0 mm WeatherDisplay:10.37 W/m2 OVC
11:56 4.3 °C -2.2 °C 1023.2 hPa SW 5.6 km/h 5.6 km/h 63% 0 mm WeatherDisplay:10.37 W/m2 OVC
12:01 4.3 °C -1.9 °C 1023.2 hPa NNW 3.7 km/h   64% 0 mm WeatherDisplay:10.37 W/m2 -RA
12:04 4.3 °C -1.9 °C 1023.2 hPa North 3.7 km/h   64% 0 mm WeatherDisplay:10.37 W/m2 -RA
12:09 4.2 °C -2.2 °C 1023.2 hPa NNE 5.6 km/h 5.6 km/h 63% 0 mm WeatherDisplay:10.37 W/m2 -RA
12:14 4.2 °C -2.2 °C 1023.2 hPa NNE 5.6 km/h   63% 0 mm WeatherDisplay:10.37 W/m2 -RA
12:19 4.2 °C -2 °C 1023.6 hPa NNW 5.6 km/h   64% 0 mm WeatherDisplay:10.37 W/m2 -RA
12:24 4.2 °C -1.2 °C 1023.2 hPa WNW 1.9 km/h   68% 0 mm WeatherDisplay:10.37 W/m2 -RA
12:29 4.1 °C -1.5 °C 1023.2 hPa WSW 5.6 km/h 5.6 km/h 67% 0 mm WeatherDisplay:10.37 W/m2 -RA
12:34 4 °C -1.4 °C 1023.2 hPa South 5.6 km/h   68% 0 mm WeatherDisplay:10.37 W/m2 -RA
12:45 3.8 °C -0.9 °C 1023.2 hPa WNW 3.7 km/h   71% 0 mm WeatherDisplay:10.37 W/m2 -RA
12:46 3.8 °C -0.8 °C 1023.2 hPa West 1.9 km/h   72% 0 mm WeatherDisplay:10.37 W/m2 -RA
12:51 3.7 °C -0.7 °C 1023.2 hPa Calm     73% 0 mm WeatherDisplay:10.37 W/m2 -RA
12:56 3.7 °C -0.6 °C 1022.9 hPa West 1.9 km/h   74% 0 mm WeatherDisplay:10.37 W/m2 -RA
13:01 3.6 °C -0.8 °C 1022.9 hPa WSW 1.9 km/h   73% 0 mm WeatherDisplay:10.37 W/m2 -RA
13:06 3.6 °C -0.7 °C 1022.9 hPa SE 1.9 km/h   74% 0 mm WeatherDisplay:10.37 W/m2 -RA
13:12 3.4 °C -0.9 °C 1022.9 hPa SE 5.6 km/h   73% 0 mm WeatherDisplay:10.37 W/m2 -RA
13:17 3.4 °C -0.6 °C 1022.6 hPa SE 5.6 km/h   75% 0 mm WeatherDisplay:10.37 W/m2 -RA
13:22 3.3 °C -0.5 °C 1022.9 hPa West 1.9 km/h   76% 0 mm WeatherDisplay:10.37 W/m2 -RA
13:27 3.2 °C -0.5 °C 1022.6 hPa WNW 3.7 km/h   77% 0 mm WeatherDisplay:10.37 W/m2 -RA
13:32 3.1 °C -0.2 °C 1022.6 hPa East 3.7 km/h   79% 0 mm WeatherDisplay:10.37 W/m2 -RA
13:37 3 °C -0.3 °C 1022.6 hPa NE 1.9 km/h   79% 0.25 mm WeatherDisplay:10.37 W/m2 -RA
13:42 2.9 °C 0 °C 1022.6 hPa NNE 1.9 km/h   81% 0.25 mm WeatherDisplay:10.37 W/m2 -RA
13:47 2.8 °C -0.1 °C 1022.2 hPa North 1.9 km/h   81% 0.25 mm WeatherDisplay:10.37 W/m2 -RA
13:52 2.8 °C 0.2 °C 1022.2 hPa Calm     83% 0.25 mm WeatherDisplay:10.37 W/m2 -RA
13:57 2.7 °C 0.3 °C 1022.2 hPa Calm     84% 0.25 mm WeatherDisplay:10.37 W/m2 -RA
14:02 2.7 °C 0.2 °C 1022.2 hPa Calm     84% 0.25 mm WeatherDisplay:10.37 W/m2 -RA
14:12 2.7 °C 0.4 °C 1021.9 hPa Calm     85% 0.51 mm WeatherDisplay:10.37 W/m2 -RA
14:17 2.8 °C 0.5 °C 1021.9 hPa Calm     85% 0.51 mm WeatherDisplay:10.37 W/m2 -RA
14:23 2.8 °C 0.4 °C 1021.9 hPa Calm     84% 0.51 mm WeatherDisplay:10.37 W/m2 -RA
14:28 2.9 °C 0.2 °C 1021.6 hPa WNW 1.9 km/h   82% 0.51 mm WeatherDisplay:10.37 W/m2 -RA
14:33 3.1 °C 0.6 °C 1021.6 hPa West 1.9 km/h   84% 0.51 mm WeatherDisplay:10.37 W/m2 -RA
14:38 3.2 °C 0.8 °C 1021.6 hPa Calm     84% 0.25 mm WeatherDisplay:10.37 W/m2 -RA
14:43 3.3 °C 0.7 °C 1021.2 hPa Calm     83% 0.25 mm WeatherDisplay:10.37 W/m2 -RA
14:48 3.4 °C 0.3 °C 1021.2 hPa WNW 1.9 km/h 1.9 km/h 80% 0.25 mm WeatherDisplay:10.37 W/m2 OVC
14:53 3.5 °C -0.3 °C 1021.2 hPa East 1.9 km/h   76% 0.25 mm WeatherDisplay:10.37 W/m2 OVC
14:58 3.6 °C 0.3 °C 1021.2 hPa East 1.9 km/h   79% 0.25 mm WeatherDisplay:10.37 W/m2 OVC
15:03 3.7 °C 0.3 °C 1020.9 hPa NE 1.9 km/h 1.9 km/h 79% 0.25 mm WeatherDisplay:10.37 W/m2 OVC
15:08 3.7 °C 0.1 °C 1020.9 hPa WNW 1.9 km/h   77% 0 mm WeatherDisplay:10.37 W/m2 OVC
15:18 3.8 °C -0.6 °C 1020.5 hPa Calm     73% 0 mm WeatherDisplay:10.37 W/m2 OVC
15:23 3.9 °C -0.2 °C 1020.5 hPa Calm     75% 0 mm WeatherDisplay:10.37 W/m2 OVC
15:34 4 °C -0.8 °C 1020.5 hPa East 1.9 km/h   71% 0 mm WeatherDisplay:10.37 W/m2 OVC
15:39 4.1 °C -0.3 °C 1020.5 hPa SE 1.9 km/h   73% 0 mm WeatherDisplay:10.37 W/m2 OVC
15:44 4.1 °C -0.3 °C 1020.5 hPa WSW 1.9 km/h   73% 0 mm WeatherDisplay:10.37 W/m2 OVC
15:49 4.2 °C -0.1 °C 1020.9 hPa West 1.9 km/h   74% 0 mm WeatherDisplay:10.37 W/m2 OVC
15:54 4.2 °C -0.4 °C 1020.5 hPa Calm     72% 0 mm WeatherDisplay:10.37 W/m2 OVC
15:59 4.2 °C -0.2 °C 1020.9 hPa West 1.9 km/h   73% 0 mm WeatherDisplay:10.37 W/m2 OVC
16:04 4.2 °C -0.4 °C 1020.9 hPa West 1.9 km/h   72% 0 mm WeatherDisplay:10.37 W/m2 OVC
16:09 4.3 °C -0.7 °C 1021.2 hPa SW 1.9 km/h   70% 0 mm WeatherDisplay:10.37 W/m2 OVC
16:14 4.3 °C -0.8 °C 1021.2 hPa WNW 1.9 km/h   69% 0 mm WeatherDisplay:10.37 W/m2 -RA
16:19 4.4 °C -1 °C 1021.2 hPa WNW 3.7 km/h   68% 0 mm WeatherDisplay:10.37 W/m2 -RA
16:24 4.4 °C -0.8 °C 1021.2 hPa WSW 3.7 km/h   69% 0 mm WeatherDisplay:10.37 W/m2 -RA
16:30 4.4 °C -0.9 °C 1021.6 hPa SSW 1.9 km/h   68% 0 mm WeatherDisplay:10.37 W/m2 -RA
16:35 4.4 °C -0.3 °C 1021.6 hPa Calm     71% 0 mm WeatherDisplay:10.37 W/m2 -RA
16:40 4.4 °C -0.8 °C 1021.6 hPa Calm   1.6 km/h 69% 0 mm WeatherDisplay:10.37 W/m2 OVC
16:42 4.4 °C -0.8 °C 1021.6 hPa West 1.9 km/h   69% 0 mm WeatherDisplay:10.37 W/m2 OVC
16:47 4.4 °C -1.2 °C 1021.6 hPa West 1.9 km/h 1.9 km/h 67% 0 mm WeatherDisplay:10.37 W/m2 OVC
16:52 4.4 °C -0.9 °C 1021.6 hPa West 1.9 km/h 1.9 km/h 68% 0 mm WeatherDisplay:10.37 W/m2 OVC
16:57 4.4 °C -1.2 °C 1021.6 hPa WSW 3.7 km/h   67% 0 mm WeatherDisplay:10.37 W/m2 OVC
17:02 4.4 °C -1.8 °C 1021.6 hPa SW 3.7 km/h   64% 0 mm WeatherDisplay:10.37 W/m2 OVC
17:07 4.4 °C -1.6 °C 1021.6 hPa WSW 1.9 km/h   65% 0 mm WeatherDisplay:10.37 W/m2 OVC
17:12 4.3 °C -1.9 °C 1021.2 hPa SW 1.9 km/h   64% 0 mm WeatherDisplay:10.37 W/m2 OVC
17:17 4.3 °C -1.3 °C 1021.2 hPa SSE 1.9 km/h   67% 0 mm WeatherDisplay:10.37 W/m2 OVC
17:22 4.3 °C -1.7 °C 1021.6 hPa Calm     65% 0 mm WeatherDisplay:10.37 W/m2 OVC
17:27 4.2 °C -1.6 °C 1021.6 hPa South 1.9 km/h   66% 0 mm WeatherDisplay:10.37 W/m2 OVC
17:32 4.2 °C -1.2 °C 1021.6 hPa WSW 1.9 km/h   68% 0 mm WeatherDisplay:10.37 W/m2 OVC
17:38 4.2 °C -1.4 °C 1021.6 hPa West 1.9 km/h   67% 0 mm WeatherDisplay:10.37 W/m2 OVC
17:43 4.2 °C -1.4 °C 1021.6 hPa West 1.9 km/h   67% 0 mm WeatherDisplay:10.37 W/m2 OVC
17:48 4.1 °C -1.5 °C 1021.6 hPa West 1.9 km/h   67% 0 mm WeatherDisplay:10.37 W/m2 OVC
17:53 4.2 °C -1 °C 1021.9 hPa West 1.9 km/h   69% 0 mm WeatherDisplay:10.37 W/m2 OVC
17:58 4.1 °C -1.1 °C 1022.2 hPa WNW 1.9 km/h   69% 0 mm WeatherDisplay:10.37 W/m2 OVC
18:03 4.1 °C -1.5 °C 1022.2 hPa Calm     67% 0 mm WeatherDisplay:10.37 W/m2 OVC
18:08 4.1 °C -1.5 °C 1022.2 hPa Calm     67% 0 mm WeatherDisplay:10.37 W/m2 OVC
18:13 4.2 °C -2.1 °C 1022.2 hPa WNW 3.7 km/h   64% 0 mm WeatherDisplay:10.37 W/m2 OVC
18:18 4.3 °C -1.5 °C 1021.6 hPa West 3.7 km/h   66% 0 mm WeatherDisplay:10.37 W/m2 OVC
18:23 4.2 °C -1.6 °C 1021.6 hPa West 1.9 km/h   66% 0 mm WeatherDisplay:10.37 W/m2 OVC
18:28 4.2 °C -2 °C 1022.2 hPa West 1.9 km/h   64% 0 mm WeatherDisplay:10.37 W/m2 OVC
18:33 4.3 °C -1.7 °C 1022.6 hPa WNW 1.9 km/h   65% 0 mm WeatherDisplay:10.37 W/m2 OVC
18:38 4.3 °C -1.4 °C 1022.2 hPa WNW 1.9 km/h   66% 0 mm WeatherDisplay:10.37 W/m2 OVC
18:43 4.3 °C -2.3 °C 1022.6 hPa WNW 3.7 km/h 3.7 km/h 62% 0 mm WeatherDisplay:10.37 W/m2 OVC
18:48 4.4 °C -1.8 °C 1022.6 hPa SSE 3.7 km/h   64% 0 mm WeatherDisplay:10.37 W/m2 OVC
18:54 4.4 °C -1.6 °C 1022.2 hPa SSW 3.7 km/h   65% 0 mm WeatherDisplay:10.37 W/m2 OVC
18:59 4.4 °C -2.1 °C 1022.2 hPa West 1.9 km/h   63% 0 mm WeatherDisplay:10.37 W/m2 OVC
19:04 4.4 °C -2.1 °C 1022.6 hPa West 3.7 km/h   63% 0 mm WeatherDisplay:10.37 W/m2 OVC
19:09 4.4 °C -1.8 °C 1022.9 hPa West 3.7 km/h   64% 0 mm WeatherDisplay:10.37 W/m2 OVC
19:14 4.4 °C -2.5 °C 1022.9 hPa West 1.9 km/h   61% 0 mm WeatherDisplay:10.37 W/m2 OVC
19:19 4.4 °C -1.8 °C 1022.9 hPa West 1.9 km/h   64% 0 mm WeatherDisplay:10.37 W/m2 OVC
19:24 4.5 °C -1.7 °C 1023.2 hPa West 1.9 km/h   64% 0 mm WeatherDisplay:10.37 W/m2 OVC
19:29 4.5 °C -1.9 °C 1023.2 hPa WSW 1.9 km/h   63% 0 mm WeatherDisplay:10.37 W/m2 OVC
19:34 4.5 °C -1.7 °C 1023.2 hPa SE 1.9 km/h   64% 0 mm WeatherDisplay:10.37 W/m2 OVC
19:39 4.5 °C -1.9 °C 1022.9 hPa East 1.9 km/h   63% 0 mm WeatherDisplay:10.37 W/m2 OVC
19:44 4.5 °C -2.6 °C 1023.2 hPa East 1.9 km/h   60% 0 mm WeatherDisplay:10.37 W/m2 OVC
19:49 4.6 °C -1.9 °C 1023.6 hPa East 1.9 km/h 1.9 km/h 63% 0 mm WeatherDisplay:10.37 W/m2 OVC
19:54 4.5 °C -1.9 °C 1023.2 hPa East 1.9 km/h 1.9 km/h 63% 0 mm WeatherDisplay:10.37 W/m2 OVC
20:00 4.6 °C -2.3 °C 1023.2 hPa East 3.7 km/h   61% 0 mm WeatherDisplay:10.37 W/m2 OVC
20:05 4.6 °C -2.3 °C 1023.6 hPa East 3.7 km/h   61% 0 mm WeatherDisplay:10.37 W/m2 OVC
20:10 4.5 °C -1.5 °C 1023.6 hPa East 1.9 km/h   65% 0 mm WeatherDisplay:10.37 W/m2 OVC
20:15 4.5 °C -1.9 °C 1023.6 hPa East 1.9 km/h   63% 0 mm WeatherDisplay:10.37 W/m2 OVC
20:20 4.4 °C -2.4 °C 1023.9 hPa East 1.9 km/h 1.9 km/h 61% 0 mm WeatherDisplay:10.37 W/m2 OVC
20:25 4.5 °C -1.9 °C 1023.9 hPa East 1.9 km/h   63% 0 mm WeatherDisplay:10.37 W/m2 OVC
20:30 4.5 °C -2.6 °C 1023.9 hPa ESE 1.9 km/h   60% 0 mm WeatherDisplay:10.37 W/m2 OVC
20:35 4.6 °C -1.9 °C 1023.9 hPa WSW 1.9 km/h   63% 0 mm WeatherDisplay:10.37 W/m2 OVC
20:40 4.6 °C -1.9 °C 1023.9 hPa West 1.9 km/h 1.9 km/h 63% 0 mm WeatherDisplay:10.37 W/m2 OVC
20:45 4.6 °C -2.3 °C 1023.9 hPa West 1.9 km/h   61% 0 mm WeatherDisplay:10.37 W/m2 OVC
20:50 4.6 °C -2.6 °C 1023.6 hPa West 1.9 km/h 1.9 km/h 60% 0 mm WeatherDisplay:10.37 W/m2 OVC
20:56 4.7 °C -2.7 °C 1023.6 hPa WSW 1.9 km/h 1.9 km/h 59% 0 mm WeatherDisplay:10.37 W/m2 OVC
21:01 4.7 °C -2.8 °C 1023.9 hPa SSW 1.9 km/h   58% 0 mm WeatherDisplay:10.37 W/m2 OVC
21:06 4.7 °C -1.9 °C 1023.9 hPa SW 1.9 km/h   62% 0 mm WeatherDisplay:10.37 W/m2 OVC
21:11 4.7 °C -2 °C 1023.6 hPa Calm     62% 0 mm WeatherDisplay:10.37 W/m2 OVC
21:16 4.6 °C -1.8 °C 1023.6 hPa WSW 1.9 km/h   63% 0 mm WeatherDisplay:10.37 W/m2 OVC
21:21 4.7 °C -2.7 °C 1023.2 hPa SSE 1.9 km/h   59% 0 mm WeatherDisplay:10.37 W/m2 OVC
21:26 4.7 °C -2 °C 1023.6 hPa ESE 1.9 km/h   62% 0 mm WeatherDisplay:10.37 W/m2 OVC
21:31 4.6 °C -2.1 °C 1023.6 hPa Calm     62% 0 mm WeatherDisplay:10.37 W/m2 OVC
21:36 4.6 °C -2.1 °C 1023.9 hPa Calm     62% 0 mm WeatherDisplay:10.37 W/m2 OVC
21:41 4.6 °C -1.7 °C 1023.9 hPa Calm     64% 0 mm WeatherDisplay:10.37 W/m2 OVC
21:46 4.6 °C -1.4 °C 1023.6 hPa Calm     65% 0 mm WeatherDisplay:10.37 W/m2 OVC
21:51 4.6 °C -1.4 °C 1023.6 hPa Calm     65% 0 mm WeatherDisplay:10.37 W/m2 OVC
21:56 4.5 °C -1.5 °C 1023.9 hPa Calm     65% 0 mm WeatherDisplay:10.37 W/m2 OVC
22:02 4.5 °C -1.3 °C 1023.9 hPa Calm     66% 0 mm WeatherDisplay:10.37 W/m2 OVC
22:07 4.5 °C -1.3 °C 1023.6 hPa Calm     66% 0 mm WeatherDisplay:10.37 W/m2 OVC
22:14 4.4 °C -0.9 °C 1023.6 hPa Calm     68% 0 mm WeatherDisplay:10.37 W/m2 OVC
22:19 4.4 °C -1 °C 1023.6 hPa Calm     68% 0 mm WeatherDisplay:10.37 W/m2 OVC
22:24 4.4 °C -0.8 °C 1023.6 hPa Calm     69% 0 mm WeatherDisplay:10.37 W/m2 OVC
22:25 4.4 °C -0.8 °C 1023.6 hPa Calm     69% 0 mm WeatherDisplay:10.37 W/m2 OVC
22:27 4.4 °C -1 °C 1023.6 hPa Calm     68% 0 mm WeatherDisplay:10.37 W/m2 OVC
22:32 4.4 °C -1 °C 1023.6 hPa Calm     68% 0 mm WeatherDisplay:10.37 W/m2 OVC
22:37 4.3 °C -1.4 °C 1023.6 hPa Calm     66% 0 mm WeatherDisplay:10.37 W/m2 OVC
22:42 4.4 °C -1 °C 1023.6 hPa Calm     68% 0 mm WeatherDisplay:10.37 W/m2 OVC
22:47 4.3 °C -1.3 °C 1023.9 hPa Calm     67% 0 mm WeatherDisplay:10.37 W/m2 OVC
22:52 4.3 °C -1.1 °C 1023.9 hPa Calm     68% 0 mm WeatherDisplay:10.37 W/m2 OVC
22:57 4.3 °C -0.7 °C 1023.9 hPa Calm     70% 0 mm WeatherDisplay:10.37 W/m2 OVC
23:02 4.3 °C -0.9 °C 1023.9 hPa Calm     69% 0 mm WeatherDisplay:10.37 W/m2 OVC
23:07 4.3 °C -0.7 °C 1023.9 hPa Calm     70% 0 mm WeatherDisplay:10.37 W/m2 OVC
23:12 4.3 °C -0.5 °C 1024.3 hPa Calm     71% 0 mm WeatherDisplay:10.37 W/m2 OVC
23:17 4.3 °C -0.5 °C 1023.9 hPa Calm     71% 0 mm WeatherDisplay:10.37 W/m2 OVC
23:23 4.3 °C -0.7 °C 1023.9 hPa Calm     70% 0 mm WeatherDisplay:10.37 W/m2 OVC
23:28 4.3 °C -0.5 °C 1023.9 hPa Calm     71% 0 mm WeatherDisplay:10.37 W/m2 OVC
23:33 4.3 °C -0.7 °C 1023.6 hPa Calm     70% 0 mm WeatherDisplay:10.37 W/m2 OVC
23:38 4.3 °C -0.3 °C 1023.9 hPa Calm     72% 0 mm WeatherDisplay:10.37 W/m2 OVC
23:43 4.2 °C -0.4 °C 1023.6 hPa Calm     72% 0 mm WeatherDisplay:10.37 W/m2 OVC
23:48 4.2 °C -0.4 °C 1023.6 hPa Calm     72% 0 mm WeatherDisplay:10.37 W/m2 OVC
23:53 4.2 °C -0.4 °C 1023.6 hPa Calm     72% 0 mm WeatherDisplay:10.37 W/m2 OVC
23:58 4.2 °C -0.6 °C 1023.2 hPa Calm     71% 0 mm WeatherDisplay:10.37 W/m2 OVC
Piedmont Bend
Compliments of Weather Underground - 4 mb